Time;durP1;ratioP1;P1;durP2;ratioP2;P2;SDS_P1;SDS_P2;PMS_P1;PMS_P2;Temp;Humidity;BMP_temperature;BMP_pressure;BME280_temperature;BME280_humidity;BME280_pressure;Samples;Min_cycle;Max_cycle;Signal;HPM_P1;HPM_P2
2023/03/28 00:01:55;;;;;;;0.20;0.10;;;;;;;;;;4995211;28;20430;-78
2023/03/28 00:04:25;;;;;;;0.20;0.10;;;;;;;;;;5000257;28;20106;-78
2023/03/28 00:06:52;;;;;;;0.20;0.10;;;;;;;;;;4988994;28;20121;-77
2023/03/28 00:09:19;;;;;;;0.20;0.10;;;;;;;;;;5002895;28;20435;-77
2023/03/28 00:11:45;;;;;;;0.20;0.10;;;;;;;;;;5005502;28;20132;-77
2023/03/28 00:14:13;;;;;;;0.20;0.10;;;;;;;;;;5007465;28;20103;-77
2023/03/28 00:16:39;;;;;;;0.20;0.10;;;;;;;;;;5004068;28;20045;-76
2023/03/28 00:19:06;;;;;;;0.20;0.10;;;;;;;;;;5010380;28;20045;-77
2023/03/28 00:21:34;;;;;;;0.20;0.10;;;;;;;;;;5004521;28;20071;-77
2023/03/28 00:24:01;;;;;;;0.20;0.10;;;;;;;;;;5011267;28;20073;-77
2023/03/28 00:26:28;;;;;;;0.20;0.10;;;;;;;;;;4994431;28;20564;-78
2023/03/28 00:28:54;;;;;;;0.20;0.10;;;;;;;;;;5007244;28;20445;-78
2023/03/28 00:31:20;;;;;;;0.20;0.10;;;;;;;;;;5007845;28;20610;-77
2023/03/28 00:33:46;;;;;;;0.20;0.10;;;;;;;;;;5010417;28;20049;-77
2023/03/28 00:36:17;;;;;;;0.20;0.10;;;;;;;;;;5024349;28;20399;-76
2023/03/28 00:38:43;;;;;;;0.20;0.10;;;;;;;;;;5029075;28;20045;-78
2023/03/28 00:41:09;;;;;;;0.20;0.10;;;;;;;;;;4998107;28;20514;-76
2023/03/28 00:43:37;;;;;;;0.20;0.10;;;;;;;;;;5009231;28;20045;-77
2023/03/28 00:46:06;;;;;;;0.20;0.10;;;;;;;;;;5004451;28;20050;-76
2023/03/28 00:48:32;;;;;;;0.20;0.10;;;;;;;;;;5017949;28;20048;-78
2023/03/28 00:51:02;;;;;;;0.20;0.10;;;;;;;;;;5015025;28;20129;-77
2023/03/28 00:53:30;;;;;;;0.20;0.10;;;;;;;;;;5013894;28;20037;-77
2023/03/28 00:56:00;;;;;;;0.20;0.10;;;;;;;;;;5010830;28;20438;-76
2023/03/28 00:58:29;;;;;;;0.20;0.10;;;;;;;;;;5011477;28;20037;-77
2023/03/28 01:00:55;;;;;;;0.20;0.10;;;;;;;;;;5010740;28;20056;-77
2023/03/28 01:03:26;;;;;;;0.20;0.10;;;;;;;;;;5005800;28;20085;-77
2023/03/28 01:05:52;;;;;;;0.20;0.10;;;;;;;;;;4997990;28;21877;-77
2023/03/28 01:08:20;;;;;;;0.20;0.10;;;;;;;;;;5012417;28;20042;-76
2023/03/28 01:10:46;;;;;;;0.20;0.10;;;;;;;;;;4993970;28;20042;-77
2023/03/28 01:13:13;;;;;;;0.20;0.10;;;;;;;;;;5012248;28;20079;-77
2023/03/28 01:15:40;;;;;;;0.20;0.10;;;;;;;;;;5004072;28;20049;-77
2023/03/28 01:18:10;;;;;;;0.20;0.10;;;;;;;;;;5008468;28;20057;-76
2023/03/28 01:20:39;;;;;;;0.20;0.10;;;;;;;;;;5006507;28;20547;-76
2023/03/28 01:23:19;;;;;;;0.20;0.10;;;;;;;;;;5012043;28;20487;-77
2023/03/28 01:25:48;;;;;;;0.20;0.10;;;;;;;;;;5011541;28;20084;-77
2023/03/28 01:28:21;;;;;;;0.20;0.10;;;;;;;;;;5017169;28;22839;-77
2023/03/28 01:31:03;;;;;;;0.20;0.10;;;;;;;;;;4994867;28;20053;-77
2023/03/28 01:33:48;;;;;;;0.20;0.10;;;;;;;;;;5006552;28;20534;-77
2023/03/28 01:36:32;;;;;;;0.20;0.10;;;;;;;;;;5009845;28;20091;-77
2023/03/28 01:39:01;;;;;;;0.20;0.20;;;;;;;;;;5012206;28;20080;-77
2023/03/28 01:41:42;;;;;;;0.20;0.10;;;;;;;;;;4996954;28;20037;-77
2023/03/28 01:44:11;;;;;;;0.20;0.10;;;;;;;;;;5013189;28;20037;-77
2023/03/28 01:46:52;;;;;;;0.20;0.10;;;;;;;;;;5000109;28;20128;-78
2023/03/28 01:49:26;;;;;;;0.20;0.10;;;;;;;;;;5009277;28;20076;-77
2023/03/28 01:51:56;;;;;;;0.20;0.10;;;;;;;;;;5006645;28;20104;-75
2023/03/28 01:54:31;;;;;;;0.20;0.10;;;;;;;;;;5012917;28;20513;-78
2023/03/28 01:57:02;;;;;;;0.20;0.10;;;;;;;;;;5012791;28;20049;-77
2023/03/28 01:59:49;;;;;;;0.20;0.10;;;;;;;;;;4999590;28;20056;-77
2023/03/28 02:02:21;;;;;;;0.20;0.10;;;;;;;;;;4993275;28;20146;-77
2023/03/28 02:04:48;;;;;;;0.20;0.10;;;;;;;;;;5007422;28;20537;-77
2023/03/28 02:07:16;;;;;;;0.20;0.10;;;;;;;;;;5015420;28;20556;-77
2023/03/28 02:09:43;;;;;;;0.20;0.10;;;;;;;;;;5012058;28;23599;-77
2023/03/28 02:12:15;;;;;;;0.20;0.10;;;;;;;;;;5009016;28;20042;-76
2023/03/28 02:14:42;;;;;;;0.20;0.10;;;;;;;;;;5005532;28;20045;-76
2023/03/28 02:17:14;;;;;;;0.20;0.10;;;;;;;;;;5000104;28;20069;-77
2023/03/28 02:19:41;;;;;;;0.20;0.10;;;;;;;;;;5011184;28;20038;-77
2023/03/28 02:22:10;;;;;;;0.20;0.10;;;;;;;;;;5013321;28;20079;-77
2023/03/28 02:24:36;;;;;;;0.20;0.10;;;;;;;;;;5031785;28;20046;-77
2023/03/28 02:27:03;;;;;;;0.20;0.10;;;;;;;;;;5018237;28;20323;-77
2023/03/28 02:29:29;;;;;;;0.20;0.10;;;;;;;;;;5013536;28;20107;-75
2023/03/28 02:31:56;;;;;;;0.20;0.10;;;;;;;;;;5029309;28;20153;-77
2023/03/28 02:34:22;;;;;;;0.20;0.10;;;;;;;;;;4995093;28;20128;-77
2023/03/28 02:37:04;;;;;;;0.20;0.10;;;;;;;;;;5010569;28;20060;-77
2023/03/28 02:39:30;;;;;;;0.20;0.10;;;;;;;;;;5009349;28;20407;-77
2023/03/28 02:41:59;;;;;;;0.20;0.10;;;;;;;;;;4991516;28;20045;-77
2023/03/28 02:44:34;;;;;;;0.20;0.10;;;;;;;;;;5009623;28;20033;-77
2023/03/28 02:47:13;;;;;;;0.20;0.10;;;;;;;;;;4994670;28;20045;-77
2023/03/28 02:49:53;;;;;;;0.20;0.10;;;;;;;;;;5005882;28;20465;-77
2023/03/28 02:52:20;;;;;;;0.20;0.10;;;;;;;;;;5012666;28;20490;-77
2023/03/28 02:54:52;;;;;;;0.20;0.10;;;;;;;;;;4991116;28;20033;-77
2023/03/28 02:57:30;;;;;;;0.20;0.10;;;;;;;;;;5029081;28;20077;-77
2023/03/28 03:00:00;;;;;;;0.20;0.10;;;;;;;;;;5009586;28;20056;-76
2023/03/28 03:02:27;;;;;;;0.30;0.22;;;;;;;;;;4990885;28;20107;-77
2023/03/28 03:04:56;;;;;;;0.20;0.10;;;;;;;;;;5007649;28;20421;-77
2023/03/28 03:07:22;;;;;;;0.20;0.10;;;;;;;;;;5010389;28;20514;-77
2023/03/28 03:09:52;;;;;;;0.20;0.10;;;;;;;;;;5012567;28;20391;-76
2023/03/28 03:12:19;;;;;;;0.20;0.10;;;;;;;;;;5011265;28;20046;-77
2023/03/28 03:14:45;;;;;;;0.20;0.10;;;;;;;;;;5010304;28;20064;-77
2023/03/28 03:17:11;;;;;;;0.20;0.10;;;;;;;;;;4996255;28;20102;-77
2023/03/28 03:19:37;;;;;;;0.20;0.10;;;;;;;;;;5011274;28;20504;-77
2023/03/28 03:22:03;;;;;;;0.20;0.10;;;;;;;;;;4997714;28;20091;-77
2023/03/28 03:24:29;;;;;;;0.20;0.10;;;;;;;;;;5012086;28;20046;-77
2023/03/28 03:26:55;;;;;;;0.20;0.10;;;;;;;;;;5010940;28;20398;-77
2023/03/28 03:29:21;;;;;;;0.20;0.10;;;;;;;;;;5018648;28;20561;-77
2023/03/28 03:31:47;;;;;;;0.20;0.10;;;;;;;;;;4993299;28;20095;-77
2023/03/28 03:34:13;;;;;;;0.20;0.10;;;;;;;;;;5011862;28;20042;-77
2023/03/28 03:36:39;;;;;;;0.20;0.10;;;;;;;;;;5011181;28;20612;-77
2023/03/28 03:39:05;;;;;;;0.20;0.10;;;;;;;;;;5002106;28;20041;-77
2023/03/28 03:41:31;;;;;;;0.20;0.10;;;;;;;;;;5012791;28;20091;-76
2023/03/28 03:43:57;;;;;;;0.20;0.10;;;;;;;;;;5011592;28;20048;-77
2023/03/28 03:46:23;;;;;;;0.20;0.10;;;;;;;;;;5012398;28;20030;-76
2023/03/28 03:48:49;;;;;;;0.20;0.10;;;;;;;;;;5002510;28;20475;-76
2023/03/28 03:51:15;;;;;;;0.20;0.10;;;;;;;;;;5010371;28;20528;-77
2023/03/28 03:53:41;;;;;;;0.20;0.10;;;;;;;;;;4994629;28;20052;-77
2023/03/28 03:56:07;;;;;;;0.20;0.10;;;;;;;;;;5008911;28;20030;-77
2023/03/28 03:58:33;;;;;;;0.20;0.10;;;;;;;;;;5010892;28;20037;-77
2023/03/28 04:01:00;;;;;;;0.20;0.10;;;;;;;;;;5007863;28;20038;-77
2023/03/28 04:03:27;;;;;;;0.20;0.17;;;;;;;;;;4996045;28;20041;-77
2023/03/28 04:05:56;;;;;;;0.20;0.10;;;;;;;;;;5005490;28;20124;-76
2023/03/28 04:08:22;;;;;;;0.20;0.10;;;;;;;;;;4999123;28;20079;-77
2023/03/28 04:10:49;;;;;;;0.20;0.10;;;;;;;;;;5008861;28;20955;-78
2023/03/28 04:13:15;;;;;;;0.20;0.10;;;;;;;;;;5012882;28;20107;-77
2023/03/28 04:15:41;;;;;;;0.20;0.10;;;;;;;;;;4998118;28;20478;-76
2023/03/28 04:18:07;;;;;;;0.20;0.10;;;;;;;;;;5007915;28;20045;-77
2023/03/28 04:20:33;;;;;;;0.20;0.10;;;;;;;;;;5008279;28;20040;-76
2023/03/28 04:22:59;;;;;;;0.20;0.10;;;;;;;;;;5016240;28;20148;-76
2023/03/28 04:25:28;;;;;;;0.20;0.10;;;;;;;;;;5004378;28;20196;-77
2023/03/28 04:27:54;;;;;;;0.20;0.10;;;;;;;;;;5009168;28;20037;-76
2023/03/28 04:30:20;;;;;;;0.43;0.40;;;;;;;;;;5003736;28;20067;-77
2023/03/28 04:32:48;;;;;;;0.20;0.10;;;;;;;;;;4997542;28;20231;-77
2023/03/28 04:35:15;;;;;;;0.20;0.10;;;;;;;;;;4987092;28;20340;-77
2023/03/28 04:37:41;;;;;;;0.20;0.10;;;;;;;;;;4986725;28;20041;-76
2023/03/28 04:40:10;;;;;;;0.20;0.10;;;;;;;;;;5013502;28;20076;-77
2023/03/28 04:42:40;;;;;;;0.20;0.10;;;;;;;;;;4987746;28;20045;-77
2023/03/28 04:45:07;;;;;;;0.20;0.10;;;;;;;;;;4998447;28;20049;-77
2023/03/28 04:47:33;;;;;;;0.25;0.20;;;;;;;;;;5018839;28;20049;-76
2023/03/28 04:49:59;;;;;;;0.20;0.10;;;;;;;;;;5004428;28;20069;-76
2023/03/28 04:52:25;;;;;;;0.20;0.10;;;;;;;;;;4999299;28;20119;-77
2023/03/28 04:54:51;;;;;;;0.20;0.10;;;;;;;;;;4990247;28;20049;-76
2023/03/28 04:57:17;;;;;;;0.20;0.10;;;;;;;;;;4995832;28;20038;-76
2023/03/28 04:59:43;;;;;;;0.20;0.10;;;;;;;;;;4997428;28;20040;-77
2023/03/28 05:02:10;;;;;;;0.20;0.10;;;;;;;;;;4995287;28;20494;-77
2023/03/28 05:04:36;;;;;;;0.20;0.10;;;;;;;;;;4985810;28;20081;-77
2023/03/28 05:07:02;;;;;;;0.20;0.10;;;;;;;;;;5005052;28;20042;-76
2023/03/28 05:09:29;;;;;;;0.20;0.10;;;;;;;;;;5006084;28;20096;-76
2023/03/28 05:11:55;;;;;;;0.20;0.10;;;;;;;;;;4996489;28;20475;-77
2023/03/28 05:14:21;;;;;;;0.20;0.10;;;;;;;;;;5007070;28;20033;-76
2023/03/28 05:16:47;;;;;;;0.20;0.10;;;;;;;;;;5011274;28;20033;-76
2023/03/28 05:19:13;;;;;;;0.20;0.10;;;;;;;;;;5009426;28;20468;-77
2023/03/28 05:21:39;;;;;;;0.20;0.10;;;;;;;;;;5007382;28;20046;-77
2023/03/28 05:24:07;;;;;;;0.20;0.10;;;;;;;;;;4996491;28;20045;-77
2023/03/28 05:26:33;;;;;;;0.20;0.10;;;;;;;;;;4989938;28;20040;-77
2023/03/28 05:28:59;;;;;;;0.20;0.10;;;;;;;;;;5005039;28;20052;-77
2023/03/28 05:31:27;;;;;;;0.20;0.10;;;;;;;;;;5009072;28;20103;-77
2023/03/28 05:33:54;;;;;;;0.20;0.10;;;;;;;;;;5011299;28;20749;-77
2023/03/28 05:36:20;;;;;;;0.20;0.10;;;;;;;;;;5024027;22;20357;-77
2023/03/28 05:38:46;;;;;;;0.20;0.10;;;;;;;;;;5013874;28;20041;-77
2023/03/28 05:41:12;;;;;;;0.20;0.10;;;;;;;;;;5013920;28;20071;-77
2023/03/28 05:43:38;;;;;;;0.20;0.10;;;;;;;;;;5030403;28;20598;-76
2023/03/28 05:46:04;;;;;;;0.20;0.10;;;;;;;;;;5019281;28;20041;-76
2023/03/28 05:48:30;;;;;;;0.20;0.10;;;;;;;;;;5027732;28;20658;-77
2023/03/28 05:50:57;;;;;;;1.17;0.40;;;;;;;;;;5020792;28;20064;-77
2023/03/28 05:53:23;;;;;;;0.20;0.10;;;;;;;;;;5025175;28;20037;-77
2023/03/28 05:55:49;;;;;;;0.20;0.10;;;;;;;;;;5012895;28;20529;-77
2023/03/28 05:58:16;;;;;;;0.20;0.10;;;;;;;;;;5027135;28;20572;-77
2023/03/28 06:00:43;;;;;;;0.20;0.10;;;;;;;;;;5016376;28;20056;-77
2023/03/28 06:03:09;;;;;;;0.20;0.10;;;;;;;;;;5030345;28;20613;-76
2023/03/28 06:05:36;;;;;;;0.20;0.10;;;;;;;;;;5010827;28;20040;-77
2023/03/28 06:08:02;;;;;;;0.20;0.10;;;;;;;;;;5029312;28;20414;-77
2023/03/28 06:10:28;;;;;;;0.20;0.10;;;;;;;;;;5023091;28;22043;-77
2023/03/28 06:12:54;;;;;;;0.20;0.10;;;;;;;;;;5026119;28;20524;-76
2023/03/28 06:15:20;;;;;;;0.20;0.10;;;;;;;;;;5009987;28;20064;-77
2023/03/28 06:17:46;;;;;;;0.20;0.10;;;;;;;;;;5023727;28;20053;-77
2023/03/28 06:20:12;;;;;;;0.20;0.10;;;;;;;;;;5007668;28;20041;-77
2023/03/28 06:22:39;;;;;;;0.20;0.10;;;;;;;;;;5031112;28;20808;-77
2023/03/28 06:25:06;;;;;;;0.20;0.10;;;;;;;;;;5030173;28;20464;-77
2023/03/28 06:27:32;;;;;;;0.20;0.10;;;;;;;;;;5020662;28;20365;-78
2023/03/28 06:30:03;;;;;;;0.20;0.10;;;;;;;;;;5039280;28;20047;-77
2023/03/28 06:32:29;;;;;;;0.20;0.10;;;;;;;;;;5031063;28;20052;-78
2023/03/28 06:34:55;;;;;;;0.20;0.10;;;;;;;;;;5021071;28;20116;-77
2023/03/28 06:37:21;;;;;;;0.40;0.40;;;;;;;;;;5015750;28;20045;-79
2023/03/28 06:39:49;;;;;;;0.20;0.10;;;;;;;;;;5021548;28;20036;-77
2023/03/28 06:42:15;;;;;;;0.20;0.10;;;;;;;;;;5035351;28;20135;-77
2023/03/28 06:44:42;;;;;;;0.20;0.10;;;;;;;;;;5056444;28;20051;-77
2023/03/28 06:47:08;;;;;;;0.20;0.10;;;;;;;;;;5027170;28;20169;-77
2023/03/28 06:49:34;;;;;;;1.23;0.75;;;;;;;;;;5034898;28;20071;-78
2023/03/28 06:52:00;;;;;;;0.20;0.10;;;;;;;;;;5021729;28;20040;-77
2023/03/28 06:54:26;;;;;;;0.20;0.10;;;;;;;;;;5044098;28;20044;-77
2023/03/28 06:56:52;;;;;;;0.20;0.10;;;;;;;;;;5037272;28;20043;-77
2023/03/28 06:59:18;;;;;;;0.20;0.10;;;;;;;;;;5030301;28;20033;-77
2023/03/28 07:01:44;;;;;;;0.20;0.10;;;;;;;;;;5051467;28;20090;-77
2023/03/28 07:04:10;;;;;;;0.20;0.10;;;;;;;;;;5023578;28;20045;-77
2023/03/28 07:06:36;;;;;;;0.20;0.10;;;;;;;;;;5039270;28;20236;-78
2023/03/28 07:09:02;;;;;;;0.20;0.10;;;;;;;;;;5037268;28;20414;-76
2023/03/28 07:11:28;;;;;;;0.20;0.10;;;;;;;;;;5035729;28;20481;-77
2023/03/28 07:13:54;;;;;;;0.20;0.10;;;;;;;;;;5029829;28;20302;-78
2023/03/28 07:16:20;;;;;;;0.20;0.10;;;;;;;;;;5038045;28;20090;-77
2023/03/28 07:18:46;;;;;;;0.20;0.10;;;;;;;;;;5040049;28;20037;-78
2023/03/28 07:21:13;;;;;;;0.20;0.10;;;;;;;;;;5042094;28;20720;-78
2023/03/28 07:23:40;;;;;;;0.20;0.10;;;;;;;;;;5057536;28;20135;-78
2023/03/28 07:26:07;;;;;;;0.20;0.10;;;;;;;;;;5032217;28;20041;-78
2023/03/28 07:28:33;;;;;;;0.20;0.10;;;;;;;;;;5039674;28;20047;-77
2023/03/28 07:31:00;;;;;;;0.20;0.10;;;;;;;;;;5039383;28;20417;-78
2023/03/28 07:33:27;;;;;;;0.20;0.10;;;;;;;;;;5032521;28;20064;-78
2023/03/28 07:35:53;;;;;;;0.20;0.10;;;;;;;;;;5043510;28;20051;-78
2023/03/28 07:38:20;;;;;;;0.20;0.10;;;;;;;;;;5022104;28;20188;-79
2023/03/28 07:40:47;;;;;;;0.20;0.10;;;;;;;;;;5040210;28;20049;-77
2023/03/28 07:43:13;;;;;;;0.20;0.10;;;;;;;;;;5036168;28;20124;-77
2023/03/28 07:45:40;;;;;;;0.20;0.05;;;;;;;;;;5038292;28;20083;-77
2023/03/28 07:48:06;;;;;;;0.20;0.10;;;;;;;;;;5036604;28;20214;-79
2023/03/28 07:50:32;;;;;;;0.20;0.10;;;;;;;;;;5035998;28;20115;-78
2023/03/28 07:52:59;;;;;;;0.20;0.10;;;;;;;;;;5033333;28;20029;-80
2023/03/28 07:55:26;;;;;;;0.20;0.10;;;;;;;;;;5035530;28;20098;-79
2023/03/28 07:57:54;;;;;;;0.20;0.10;;;;;;;;;;5021253;28;20045;-78
2023/03/28 08:00:22;;;;;;;0.20;0.10;;;;;;;;;;5039316;28;20068;-78
2023/03/28 08:02:49;;;;;;;0.20;0.10;;;;;;;;;;5044027;28;20321;-78
2023/03/28 08:05:15;;;;;;;0.20;0.10;;;;;;;;;;5022825;28;20398;-78
2023/03/28 08:07:44;;;;;;;0.20;0.10;;;;;;;;;;5046463;28;20037;-79
2023/03/28 08:10:11;;;;;;;0.20;0.10;;;;;;;;;;5045481;28;20036;-79
2023/03/28 08:12:37;;;;;;;0.20;0.10;;;;;;;;;;5036831;28;20038;-78
2023/03/28 08:15:04;;;;;;;0.20;0.10;;;;;;;;;;5022402;28;20565;-79
2023/03/28 08:17:31;;;;;;;0.20;0.10;;;;;;;;;;5049987;28;20068;-78
2023/03/28 08:19:57;;;;;;;0.20;0.10;;;;;;;;;;5047386;28;20048;-79
2023/03/28 08:22:25;;;;;;;0.20;0.10;;;;;;;;;;5051354;28;20282;-80
2023/03/28 08:24:51;;;;;;;0.20;0.10;;;;;;;;;;5046148;28;20040;-78
2023/03/28 08:27:17;;;;;;;0.20;0.10;;;;;;;;;;5023930;28;21028;-78
2023/03/28 08:29:43;;;;;;;0.20;0.10;;;;;;;;;;5034547;28;20442;-78
2023/03/28 08:32:09;;;;;;;0.20;0.10;;;;;;;;;;5044519;28;20030;-77
2023/03/28 08:34:36;;;;;;;0.20;0.10;;;;;;;;;;5052497;28;20690;-78
2023/03/28 08:37:05;;;;;;;0.35;0.35;;;;;;;;;;5032008;28;20041;-78
2023/03/28 08:39:32;;;;;;;1.80;0.55;;;;;;;;;;5026815;28;20048;-80
2023/03/28 08:42:18;;;;;;;0.20;0.10;;;;;;;;;;5030718;28;20041;-79
2023/03/28 08:45:03;;;;;;;0.20;0.10;;;;;;;;;;5045778;28;20041;-78
2023/03/28 08:47:30;;;;;;;0.20;0.10;;;;;;;;;;5023023;28;20036;-78
2023/03/28 08:50:00;;;;;;;0.20;0.10;;;;;;;;;;5040632;28;20052;-79
2023/03/28 08:52:29;;;;;;;0.20;0.10;;;;;;;;;;5046734;28;20040;-78
2023/03/28 08:55:00;;;;;;;0.20;0.10;;;;;;;;;;5047238;28;20509;-79
2023/03/28 08:57:28;;;;;;;0.20;0.10;;;;;;;;;;5025123;28;20040;-79
2023/03/28 09:00:13;;;;;;;0.20;0.10;;;;;;;;;;5049693;28;20120;-78
2023/03/28 09:02:40;;;;;;;2.50;2.05;;;;;;;;;;5047512;28;20350;-78
2023/03/28 09:05:09;;;;;;;0.20;0.10;;;;;;;;;;5041500;28;20181;-78
2023/03/28 09:07:35;;;;;;;0.20;0.10;;;;;;;;;;5021556;28;20037;-80
2023/03/28 09:10:06;;;;;;;0.20;0.10;;;;;;;;;;5031267;28;20538;-78
2023/03/28 09:12:35;;;;;;;0.20;0.10;;;;;;;;;;5057153;28;20025;-77
2023/03/28 09:15:25;;;;;;;0.20;0.10;;;;;;;;;;5046431;28;20370;-80
2023/03/28 09:18:22;;;;;;;0.20;0.10;;;;;;;;;;5030458;28;20064;-78
2023/03/28 09:20:53;;;;;;;0.20;0.10;;;;;;;;;;5016963;28;20057;-78
2023/03/28 09:23:38;;;;;;;0.20;0.10;;;;;;;;;;5053794;28;20046;-78
2023/03/28 09:26:13;;;;;;;0.20;0.10;;;;;;;;;;5053896;28;20421;-80
2023/03/28 09:28:56;;;;;;;0.20;0.10;;;;;;;;;;5035391;28;20044;-78
2023/03/28 09:31:26;;;;;;;0.20;0.10;;;;;;;;;;5047700;28;20044;-79
2023/03/28 09:33:54;;;;;;;0.20;0.10;;;;;;;;;;5045649;28;20160;-78
2023/03/28 09:36:24;;;;;;;0.20;0.10;;;;;;;;;;5030056;28;20161;-78
2023/03/28 09:38:58;;;;;;;0.20;0.10;;;;;;;;;;5047689;28;20053;-77
2023/03/28 09:41:27;;;;;;;0.20;0.10;;;;;;;;;;5043666;28;20049;-78
2023/03/28 09:43:58;;;;;;;0.20;0.10;;;;;;;;;;5048153;28;20455;-78
2023/03/28 09:46:30;;;;;;;0.20;0.10;;;;;;;;;;5054410;28;20059;-78
2023/03/28 09:48:56;;;;;;;0.20;0.10;;;;;;;;;;5035775;28;20040;-78
2023/03/28 09:51:22;;;;;;;0.20;0.10;;;;;;;;;;5050606;28;20494;-79
2023/03/28 09:53:48;;;;;;;0.60;0.30;;;;;;;;;;5049151;28;20433;-78
2023/03/28 09:56:17;;;;;;;0.20;0.10;;;;;;;;;;5050096;28;20069;-79
2023/03/28 09:58:48;;;;;;;0.20;0.10;;;;;;;;;;5037673;28;20097;-78
2023/03/28 10:01:30;;;;;;;0.20;0.10;;;;;;;;;;5053054;28;20124;-78
2023/03/28 10:03:57;;;;;;;0.20;0.10;;;;;;;;;;5058319;28;20071;-79
2023/03/28 10:06:29;;;;;;;0.20;0.10;;;;;;;;;;5048809;28;20044;-78
2023/03/28 10:09:14;;;;;;;0.20;0.10;;;;;;;;;;5056031;28;20159;-78
2023/03/28 10:11:55;;;;;;;0.20;0.10;;;;;;;;;;5053865;28;20036;-79
2023/03/28 10:14:28;;;;;;;0.20;0.10;;;;;;;;;;5048225;28;20093;-78
2023/03/28 10:16:54;;;;;;;0.20;0.10;;;;;;;;;;5035821;28;20086;-79
2023/03/28 10:19:23;;;;;;;0.20;0.10;;;;;;;;;;5041823;28;20036;-79
2023/03/28 10:21:49;;;;;;;0.20;0.10;;;;;;;;;;5055600;28;20041;-78
2023/03/28 10:24:17;;;;;;;0.20;0.10;;;;;;;;;;5035283;28;20079;-79
2023/03/28 10:26:43;;;;;;;0.55;0.55;;;;;;;;;;5038183;28;20033;-78
2023/03/28 10:29:12;;;;;;;0.47;0.20;;;;;;;;;;5040966;28;20122;-78
2023/03/28 10:31:40;;;;;;;0.20;0.10;;;;;;;;;;5051221;28;20055;-78
2023/03/28 10:34:22;;;;;;;0.20;0.10;;;;;;;;;;5053540;28;20037;-77
2023/03/28 10:36:48;;;;;;;0.20;0.10;;;;;;;;;;5053648;28;20048;-77
2023/03/28 10:39:25;;;;;;;0.20;0.10;;;;;;;;;;5046710;28;20038;-79
2023/03/28 10:41:54;;;;;;;0.20;0.10;;;;;;;;;;5066021;28;20041;-78
2023/03/28 10:44:26;;;;;;;0.20;0.10;;;;;;;;;;5051125;28;20052;-77
2023/03/28 10:46:53;;;;;;;0.20;0.10;;;;;;;;;;5044174;28;20042;-80
2023/03/28 10:49:20;;;;;;;0.20;0.10;;;;;;;;;;5039707;28;20037;-79
2023/03/28 10:51:46;;;;;;;0.20;0.10;;;;;;;;;;5050114;28;20064;-78
2023/03/28 10:54:12;;;;;;;0.20;0.10;;;;;;;;;;5029796;28;20042;-78
2023/03/28 10:56:51;;;;;;;0.20;0.10;;;;;;;;;;5039578;28;20052;-79
2023/03/28 10:59:36;;;;;;;0.20;0.10;;;;;;;;;;5038964;28;20455;-78
2023/03/28 11:02:21;;;;;;;0.20;0.10;;;;;;;;;;5059755;28;20047;-79
2023/03/28 11:04:47;;;;;;;0.20;0.10;;;;;;;;;;5033116;28;20042;-77
2023/03/28 11:07:32;;;;;;;0.20;0.10;;;;;;;;;;5020832;28;20041;-78
2023/03/28 11:10:19;;;;;;;0.20;0.10;;;;;;;;;;5034822;28;20056;-78
2023/03/28 11:12:54;;;;;;;0.20;0.10;;;;;;;;;;5047382;28;20028;-78
2023/03/28 11:15:33;;;;;;;0.20;0.10;;;;;;;;;;5043064;28;20147;-77
2023/03/28 11:18:07;;;;;;;0.20;0.10;;;;;;;;;;5055646;28;20414;-77
2023/03/28 11:21:00;;;;;;;0.30;0.30;;;;;;;;;;5049789;28;20063;-77
2023/03/28 11:23:27;;;;;;;0.20;0.10;;;;;;;;;;5043804;28;20057;-79
2023/03/28 11:25:56;;;;;;;0.20;0.10;;;;;;;;;;5045393;28;20506;-79
2023/03/28 11:28:41;;;;;;;0.20;0.10;;;;;;;;;;5041713;28;20793;-77
2023/03/28 11:31:11;;;;;;;0.20;0.10;;;;;;;;;;5046761;28;20122;-77
2023/03/28 11:33:43;;;;;;;0.20;0.10;;;;;;;;;;5042603;28;20727;-78
2023/03/28 11:36:15;;;;;;;0.20;0.10;;;;;;;;;;5062679;22;20044;-78
2023/03/28 11:38:48;;;;;;;0.20;0.10;;;;;;;;;;5016353;28;20540;-79
2023/03/28 11:41:17;;;;;;;0.20;0.15;;;;;;;;;;5024760;28;20044;-81
2023/03/28 11:43:58;;;;;;;0.20;0.13;;;;;;;;;;5012079;28;20078;-81
2023/03/28 11:46:32;;;;;;;0.20;0.10;;;;;;;;;;5032755;28;20045;-80
2023/03/28 11:49:16;;;;;;;0.43;0.30;;;;;;;;;;5023085;28;20156;-79
2023/03/28 11:52:01;;;;;;;0.20;0.10;;;;;;;;;;5030439;28;20104;-79
2023/03/28 11:54:31;;;;;;;0.20;0.10;;;;;;;;;;5033275;28;20057;-81
2023/03/28 11:57:03;;;;;;;0.20;0.10;;;;;;;;;;5013102;28;20045;-79
2023/03/28 11:59:39;;;;;;;0.55;0.30;;;;;;;;;;5033754;28;20094;-78
2023/03/28 12:02:24;;;;;;;0.20;0.10;;;;;;;;;;5030819;28;20076;-79
2023/03/28 12:04:57;;;;;;;0.20;0.10;;;;;;;;;;5018087;28;20041;-77
2023/03/28 12:07:42;;;;;;;0.20;0.10;;;;;;;;;;4996474;28;20052;-78
2023/03/28 12:10:20;;;;;;;0.38;0.32;;;;;;;;;;5023804;28;20498;-79
2023/03/28 12:12:58;;;;;;;0.20;0.10;;;;;;;;;;5014019;28;20037;-79
2023/03/28 12:15:30;;;;;;;0.20;0.10;;;;;;;;;;5005535;28;20630;-79
2023/03/28 12:17:59;;;;;;;0.20;0.10;;;;;;;;;;5015263;28;20037;-79
2023/03/28 12:20:31;;;;;;;0.20;0.10;;;;;;;;;;5016806;28;20047;-79
2023/03/28 12:23:00;;;;;;;0.20;0.10;;;;;;;;;;5024383;28;20086;-79
2023/03/28 12:25:41;;;;;;;0.20;0.10;;;;;;;;;;5019697;28;20072;-80
2023/03/28 12:28:21;;;;;;;0.20;0.10;;;;;;;;;;5014304;28;20033;-80
2023/03/28 12:30:58;;;;;;;0.20;0.10;;;;;;;;;;5022978;28;20409;-78
2023/03/28 12:33:44;;;;;;;0.20;0.10;;;;;;;;;;5020835;28;20128;-79
2023/03/28 12:36:16;;;;;;;0.20;0.10;;;;;;;;;;5015783;28;20033;-81
2023/03/28 12:39:15;;;;;;;0.20;0.10;;;;;;;;;;5008691;28;20059;-79
2023/03/28 12:41:41;;;;;;;0.20;0.10;;;;;;;;;;5011171;28;20416;-80
2023/03/28 12:44:13;;;;;;;0.20;0.10;;;;;;;;;;5018445;28;20049;-78
2023/03/28 12:46:45;;;;;;;0.20;0.10;;;;;;;;;;5002125;28;20049;-81
2023/03/28 12:49:11;;;;;;;;;;;;;;;;;;5017566;28;20129;-79
2023/03/28 12:51:40;;;;;;;0.20;0.10;;;;;;;;;;5004046;28;20007;-77
2023/03/28 12:54:16;;;;;;;0.25;0.25;;;;;;;;;;5005945;28;20053;-79
2023/03/28 12:57:01;;;;;;;0.20;0.10;;;;;;;;;;5013204;28;20045;-80
2023/03/28 12:59:42;;;;;;;0.20;0.10;;;;;;;;;;4995701;28;20042;-76
2023/03/28 13:02:31;;;;;;;0.20;0.10;;;;;;;;;;5014674;28;20049;-78
2023/03/28 13:05:11;;;;;;;0.20;0.10;;;;;;;;;;4991146;28;20575;-79
2023/03/28 13:07:37;;;;;;;0.20;0.10;;;;;;;;;;5007038;28;20045;-77
2023/03/28 13:10:14;;;;;;;0.20;0.10;;;;;;;;;;4996359;28;20044;-78
2023/03/28 13:12:58;;;;;;;0.20;0.10;;;;;;;;;;5022634;28;20041;-78
2023/03/28 13:15:26;;;;;;;0.20;0.10;;;;;;;;;;5020272;28;20044;-79
2023/03/28 13:18:10;;;;;;;0.20;0.10;;;;;;;;;;5034657;28;20041;-79
2023/03/28 13:20:44;;;;;;;0.20;0.10;;;;;;;;;;5019437;28;20044;-77
2023/03/28 13:23:12;;;;;;;0.20;0.10;;;;;;;;;;5015759;28;20052;-78
2023/03/28 13:25:39;;;;;;;0.20;0.10;;;;;;;;;;4999301;28;20044;-78
2023/03/28 13:28:11;;;;;;;0.20;0.10;;;;;;;;;;4995366;28;20117;-78
2023/03/28 13:30:42;;;;;;;0.20;0.20;;;;;;;;;;5011758;28;20431;-78
2023/03/28 13:33:27;;;;;;;0.20;0.10;;;;;;;;;;5013915;28;21181;-79
2023/03/28 13:35:59;;;;;;;0.20;0.10;;;;;;;;;;5021724;28;20520;-78
2023/03/28 13:38:28;;;;;;;0.20;0.10;;;;;;;;;;5016197;28;20048;-78
2023/03/28 13:41:18;;;;;;;0.20;0.10;;;;;;;;;;5011154;28;20085;-77
2023/03/28 13:43:50;;;;;;;0.20;0.20;;;;;;;;;;4971932;28;20045;-79
2023/03/28 13:46:16;;;;;;;;;;;;;;;;;;5012723;28;20124;-79
2023/03/28 13:48:48;;;;;;;0.20;0.10;;;;;;;;;;5010290;28;20008;-79
2023/03/28 13:51:18;;;;;;;0.20;0.10;;;;;;;;;;4994561;28;20521;-77
2023/03/28 13:53:47;;;;;;;1.73;1.63;;;;;;;;;;5012179;28;20138;-78
2023/03/28 13:56:28;;;;;;;0.20;0.10;;;;;;;;;;5002528;28;20034;-78
2023/03/28 13:58:55;;;;;;;0.20;0.10;;;;;;;;;;5000889;28;20573;-78
2023/03/28 14:01:26;;;;;;;0.20;0.10;;;;;;;;;;5019301;28;20060;-78
2023/03/28 14:03:53;;;;;;;0.20;0.10;;;;;;;;;;5000989;28;20224;-77
2023/03/28 14:06:21;;;;;;;0.63;0.43;;;;;;;;;;5018480;28;20033;-78
2023/03/28 14:08:48;;;;;;;0.20;0.10;;;;;;;;;;5003072;28;20037;-78
2023/03/28 14:11:16;;;;;;;0.20;0.10;;;;;;;;;;5034045;28;20127;-79
2023/03/28 14:13:43;;;;;;;0.20;0.10;;;;;;;;;;5014818;28;20033;-80
2023/03/28 14:16:09;;;;;;;0.20;0.10;;;;;;;;;;5000816;28;20047;-77
2023/03/28 14:18:46;;;;;;;0.20;0.10;;;;;;;;;;5016651;28;20355;-78
2023/03/28 14:21:12;;;;;;;0.20;0.10;;;;;;;;;;5011375;28;20052;-79
2023/03/28 14:23:39;;;;;;;0.20;0.10;;;;;;;;;;5016307;28;20412;-78
2023/03/28 14:26:07;;;;;;;0.20;0.10;;;;;;;;;;5017295;28;20183;-79
2023/03/28 14:28:33;;;;;;;0.20;0.10;;;;;;;;;;5011892;28;20036;-78
2023/03/28 14:31:00;;;;;;;0.68;0.52;;;;;;;;;;4994770;28;20103;-77
2023/03/28 14:33:30;;;;;;;0.20;0.10;;;;;;;;;;5014356;28;20072;-78
2023/03/28 14:36:02;;;;;;;0.20;0.10;;;;;;;;;;5017416;28;20112;-77
2023/03/28 14:38:36;;;;;;;0.20;0.10;;;;;;;;;;5012668;28;20087;-79
2023/03/28 14:41:12;;;;;;;0.40;0.30;;;;;;;;;;5014356;28;20523;-79
2023/03/28 14:43:38;;;;;;;0.20;0.10;;;;;;;;;;5029070;28;20067;-78
2023/03/28 14:46:06;;;;;;;0.20;0.20;;;;;;;;;;4995097;28;20524;-77
2023/03/28 14:48:32;;;;;;;0.20;0.10;;;;;;;;;;5016267;28;20032;-78
2023/03/28 14:50:59;;;;;;;0.38;0.38;;;;;;;;;;5015715;28;20593;-78
2023/03/28 14:53:30;;;;;;;0.20;0.10;;;;;;;;;;4991851;28;20512;-79
2023/03/28 14:56:03;;;;;;;0.20;0.10;;;;;;;;;;5016937;28;20522;-78
2023/03/28 14:58:29;;;;;;;0.20;0.10;;;;;;;;;;5028821;28;20067;-78
2023/03/28 15:00:59;;;;;;;0.65;0.65;;;;;;;;;;5019273;28;20541;-77